sensor_id;sensor_type;location;lat;lon;timestamp;P1;durP1;ratioP1;P2;durP2;ratioP2
21206;SDS011;10761;48.532;8.026;2024-03-07T00:00:45;24.15;;;18.48;;
21206;SDS011;10761;48.532;8.026;2024-03-07T00:03:11;23.85;;;18.25;;
21206;SDS011;10761;48.532;8.026;2024-03-07T00:05:36;23.08;;;19.08;;
21206;SDS011;10761;48.532;8.026;2024-03-07T00:08:02;26.58;;;19.35;;
21206;SDS011;10761;48.532;8.026;2024-03-07T00:10:28;24.90;;;19.05;;
21206;SDS011;10761;48.532;8.026;2024-03-07T00:12:54;25.25;;;19.15;;
21206;SDS011;10761;48.532;8.026;2024-03-07T00:15:19;26.75;;;19.83;;
21206;SDS011;10761;48.532;8.026;2024-03-07T00:17:46;25.92;;;19.75;;
21206;SDS011;10761;48.532;8.026;2024-03-07T00:20:11;23.27;;;19.38;;
21206;SDS011;10761;48.532;8.026;2024-03-07T00:22:40;24.20;;;17.45;;
21206;SDS011;10761;48.532;8.026;2024-03-07T00:25:06;23.90;;;19.08;;
21206;SDS011;10761;48.532;8.026;2024-03-07T00:27:34;27.65;;;18.98;;
21206;SDS011;10761;48.532;8.026;2024-03-07T00:30:00;25.23;;;18.65;;
21206;SDS011;10761;48.532;8.026;2024-03-07T00:32:26;26.00;;;19.67;;
21206;SDS011;10761;48.532;8.026;2024-03-07T00:34:54;24.05;;;19.23;;
21206;SDS011;10761;48.532;8.026;2024-03-07T00:37:22;29.20;;;19.27;;
21206;SDS011;10761;48.532;8.026;2024-03-07T00:39:49;23.13;;;19.50;;
21206;SDS011;10761;48.532;8.026;2024-03-07T00:42:15;23.85;;;19.63;;
21206;SDS011;10761;48.532;8.026;2024-03-07T00:44:40;27.27;;;20.58;;
21206;SDS011;10761;48.532;8.026;2024-03-07T00:47:06;27.17;;;20.08;;
21206;SDS011;10761;48.532;8.026;2024-03-07T00:49:32;30.98;;;21.48;;
21206;SDS011;10761;48.532;8.026;2024-03-07T00:51:58;26.50;;;20.92;;
21206;SDS011;10761;48.532;8.026;2024-03-07T00:54:24;27.50;;;21.45;;
21206;SDS011;10761;48.532;8.026;2024-03-07T00:56:50;27.20;;;20.88;;
21206;SDS011;10761;48.532;8.026;2024-03-07T00:59:15;27.75;;;20.13;;
21206;SDS011;10761;48.532;8.026;2024-03-07T01:01:41;25.80;;;21.17;;
21206;SDS011;10761;48.532;8.026;2024-03-07T01:04:07;27.45;;;20.98;;
21206;SDS011;10761;48.532;8.026;2024-03-07T01:06:33;27.05;;;22.08;;
21206;SDS011;10761;48.532;8.026;2024-03-07T01:09:01;28.48;;;21.90;;
21206;SDS011;10761;48.532;8.026;2024-03-07T01:11:26;29.92;;;22.65;;
21206;SDS011;10761;48.532;8.026;2024-03-07T01:13:52;27.95;;;23.10;;
21206;SDS011;10761;48.532;8.026;2024-03-07T01:16:18;30.67;;;23.42;;
21206;SDS011;10761;48.532;8.026;2024-03-07T01:18:44;35.30;;;25.90;;
21206;SDS011;10761;48.532;8.026;2024-03-07T01:21:09;34.50;;;25.25;;
21206;SDS011;10761;48.532;8.026;2024-03-07T01:23:35;34.10;;;26.45;;
21206;SDS011;10761;48.532;8.026;2024-03-07T01:26:00;35.30;;;26.80;;
21206;SDS011;10761;48.532;8.026;2024-03-07T01:28:27;38.42;;;28.25;;
21206;SDS011;10761;48.532;8.026;2024-03-07T01:30:55;37.15;;;27.75;;
21206;SDS011;10761;48.532;8.026;2024-03-07T01:33:22;38.17;;;28.23;;
21206;SDS011;10761;48.532;8.026;2024-03-07T01:35:48;38.88;;;28.50;;
21206;SDS011;10761;48.532;8.026;2024-03-07T01:38:14;41.42;;;29.88;;
21206;SDS011;10761;48.532;8.026;2024-03-07T01:40:43;42.10;;;29.27;;
21206;SDS011;10761;48.532;8.026;2024-03-07T01:43:09;39.88;;;30.25;;
21206;SDS011;10761;48.532;8.026;2024-03-07T01:45:35;46.92;;;33.33;;
21206;SDS011;10761;48.532;8.026;2024-03-07T01:48:02;47.50;;;32.20;;
21206;SDS011;10761;48.532;8.026;2024-03-07T01:50:29;46.47;;;31.75;;
21206;SDS011;10761;48.532;8.026;2024-03-07T01:52:55;50.70;;;35.05;;
21206;SDS011;10761;48.532;8.026;2024-03-07T01:55:21;51.97;;;35.90;;
21206;SDS011;10761;48.532;8.026;2024-03-07T01:57:48;54.72;;;36.50;;
21206;SDS011;10761;48.532;8.026;2024-03-07T02:00:14;53.53;;;35.22;;
21206;SDS011;10761;48.532;8.026;2024-03-07T02:02:40;51.25;;;34.85;;
21206;SDS011;10761;48.532;8.026;2024-03-07T02:05:06;53.72;;;37.20;;
21206;SDS011;10761;48.532;8.026;2024-03-07T02:07:32;53.53;;;36.90;;
21206;SDS011;10761;48.532;8.026;2024-03-07T02:10:02;54.13;;;36.63;;
21206;SDS011;10761;48.532;8.026;2024-03-07T02:12:29;55.38;;;36.60;;
21206;SDS011;10761;48.532;8.026;2024-03-07T02:14:55;48.75;;;34.78;;
21206;SDS011;10761;48.532;8.026;2024-03-07T02:17:22;51.95;;;36.00;;
21206;SDS011;10761;48.532;8.026;2024-03-07T02:19:48;49.15;;;35.65;;
21206;SDS011;10761;48.532;8.026;2024-03-07T02:22:14;52.28;;;35.47;;
21206;SDS011;10761;48.532;8.026;2024-03-07T02:24:39;53.22;;;36.28;;
21206;SDS011;10761;48.532;8.026;2024-03-07T02:27:05;55.47;;;36.97;;
21206;SDS011;10761;48.532;8.026;2024-03-07T02:29:31;49.67;;;36.47;;
21206;SDS011;10761;48.532;8.026;2024-03-07T02:31:56;53.50;;;35.88;;
21206;SDS011;10761;48.532;8.026;2024-03-07T02:34:22;51.88;;;34.33;;
21206;SDS011;10761;48.532;8.026;2024-03-07T02:36:47;51.85;;;34.75;;
21206;SDS011;10761;48.532;8.026;2024-03-07T02:39:13;49.08;;;32.97;;
21206;SDS011;10761;48.532;8.026;2024-03-07T02:41:40;47.70;;;33.45;;
21206;SDS011;10761;48.532;8.026;2024-03-07T02:44:05;51.25;;;34.85;;
21206;SDS011;10761;48.532;8.026;2024-03-07T02:46:32;45.47;;;33.17;;
21206;SDS011;10761;48.532;8.026;2024-03-07T02:48:58;51.03;;;34.25;;
21206;SDS011;10761;48.532;8.026;2024-03-07T02:51:24;46.22;;;33.78;;
21206;SDS011;10761;48.532;8.026;2024-03-07T02:53:49;50.42;;;34.67;;
21206;SDS011;10761;48.532;8.026;2024-03-07T02:56:15;51.85;;;35.22;;
21206;SDS011;10761;48.532;8.026;2024-03-07T02:58:41;48.40;;;34.97;;
21206;SDS011;10761;48.532;8.026;2024-03-07T03:01:07;46.60;;;34.38;;
21206;SDS011;10761;48.532;8.026;2024-03-07T03:03:32;56.45;;;37.80;;
21206;SDS011;10761;48.532;8.026;2024-03-07T03:05:58;57.40;;;38.60;;
21206;SDS011;10761;48.532;8.026;2024-03-07T03:08:27;54.58;;;38.05;;
21206;SDS011;10761;48.532;8.026;2024-03-07T03:10:53;61.15;;;38.72;;
21206;SDS011;10761;48.532;8.026;2024-03-07T03:13:22;58.72;;;38.33;;
21206;SDS011;10761;48.532;8.026;2024-03-07T03:15:54;54.80;;;37.05;;
21206;SDS011;10761;48.532;8.026;2024-03-07T03:18:23;54.08;;;35.30;;
21206;SDS011;10761;48.532;8.026;2024-03-07T03:20:48;49.58;;;34.28;;
21206;SDS011;10761;48.532;8.026;2024-03-07T03:23:14;50.63;;;33.70;;
21206;SDS011;10761;48.532;8.026;2024-03-07T03:25:40;49.40;;;34.40;;
21206;SDS011;10761;48.532;8.026;2024-03-07T03:28:06;51.00;;;34.10;;
21206;SDS011;10761;48.532;8.026;2024-03-07T03:30:36;50.13;;;34.47;;
21206;SDS011;10761;48.532;8.026;2024-03-07T03:33:02;48.83;;;33.97;;
21206;SDS011;10761;48.532;8.026;2024-03-07T03:35:28;50.60;;;34.45;;
21206;SDS011;10761;48.532;8.026;2024-03-07T03:37:53;52.28;;;35.30;;
21206;SDS011;10761;48.532;8.026;2024-03-07T03:40:19;56.78;;;37.67;;
21206;SDS011;10761;48.532;8.026;2024-03-07T03:42:45;55.65;;;36.67;;
21206;SDS011;10761;48.532;8.026;2024-03-07T03:45:10;58.40;;;36.83;;
21206;SDS011;10761;48.532;8.026;2024-03-07T03:47:42;58.72;;;37.88;;
21206;SDS011;10761;48.532;8.026;2024-03-07T03:50:09;61.05;;;38.50;;
21206;SDS011;10761;48.532;8.026;2024-03-07T03:52:36;65.25;;;41.72;;
21206;SDS011;10761;48.532;8.026;2024-03-07T03:55:03;66.30;;;42.08;;
21206;SDS011;10761;48.532;8.026;2024-03-07T03:57:34;64.75;;;42.40;;
21206;SDS011;10761;48.532;8.026;2024-03-07T04:00:00;62.13;;;41.53;;
21206;SDS011;10761;48.532;8.026;2024-03-07T04:02:34;71.22;;;42.17;;
21206;SDS011;10761;48.532;8.026;2024-03-07T04:05:05;70.38;;;42.53;;
21206;SDS011;10761;48.532;8.026;2024-03-07T04:07:30;64.70;;;40.92;;
21206;SDS011;10761;48.532;8.026;2024-03-07T04:09:56;68.72;;;41.88;;
21206;SDS011;10761;48.532;8.026;2024-03-07T04:12:23;69.30;;;40.63;;
21206;SDS011;10761;48.532;8.026;2024-03-07T04:14:51;67.43;;;40.42;;
21206;SDS011;10761;48.532;8.026;2024-03-07T04:17:19;64.28;;;39.10;;
21206;SDS011;10761;48.532;8.026;2024-03-07T04:19:45;65.00;;;40.55;;
21206;SDS011;10761;48.532;8.026;2024-03-07T04:22:11;61.92;;;40.35;;
21206;SDS011;10761;48.532;8.026;2024-03-07T04:24:37;65.75;;;40.65;;
21206;SDS011;10761;48.532;8.026;2024-03-07T04:27:03;72.28;;;42.58;;
21206;SDS011;10761;48.532;8.026;2024-03-07T04:29:29;70.03;;;41.13;;
21206;SDS011;10761;48.532;8.026;2024-03-07T04:31:59;77.22;;;42.85;;
21206;SDS011;10761;48.532;8.026;2024-03-07T04:34:26;79.60;;;44.55;;
21206;SDS011;10761;48.532;8.026;2024-03-07T04:36:53;70.07;;;40.50;;
21206;SDS011;10761;48.532;8.026;2024-03-07T04:39:18;69.63;;;41.80;;
21206;SDS011;10761;48.532;8.026;2024-03-07T04:41:58;71.45;;;42.13;;
21206;SDS011;10761;48.532;8.026;2024-03-07T04:44:30;77.20;;;43.95;;
21206;SDS011;10761;48.532;8.026;2024-03-07T04:46:59;78.20;;;43.88;;
21206;SDS011;10761;48.532;8.026;2024-03-07T04:49:26;76.22;;;43.42;;
21206;SDS011;10761;48.532;8.026;2024-03-07T04:51:56;74.65;;;43.22;;
21206;SDS011;10761;48.532;8.026;2024-03-07T04:54:23;76.15;;;44.00;;
21206;SDS011;10761;48.532;8.026;2024-03-07T04:56:50;81.18;;;44.13;;
21206;SDS011;10761;48.532;8.026;2024-03-07T04:59:17;79.35;;;44.10;;
21206;SDS011;10761;48.532;8.026;2024-03-07T05:01:43;78.65;;;43.75;;
21206;SDS011;10761;48.532;8.026;2024-03-07T05:04:10;87.75;;;45.28;;
21206;SDS011;10761;48.532;8.026;2024-03-07T05:06:37;74.50;;;42.05;;
21206;SDS011;10761;48.532;8.026;2024-03-07T05:09:03;69.60;;;39.67;;
21206;SDS011;10761;48.532;8.026;2024-03-07T05:11:30;73.07;;;41.80;;
21206;SDS011;10761;48.532;8.026;2024-03-07T05:13:59;67.50;;;39.95;;
21206;SDS011;10761;48.532;8.026;2024-03-07T05:16:26;74.50;;;41.83;;
21206;SDS011;10761;48.532;8.026;2024-03-07T05:18:56;76.25;;;42.35;;
21206;SDS011;10761;48.532;8.026;2024-03-07T05:21:24;79.07;;;41.42;;
21206;SDS011;10761;48.532;8.026;2024-03-07T05:23:59;76.18;;;41.85;;
21206;SDS011;10761;48.532;8.026;2024-03-07T05:26:26;75.32;;;41.10;;
21206;SDS011;10761;48.532;8.026;2024-03-07T05:28:52;77.80;;;41.20;;
21206;SDS011;10761;48.532;8.026;2024-03-07T05:31:21;79.30;;;39.92;;
21206;SDS011;10761;48.532;8.026;2024-03-07T05:33:47;168.30;;;40.78;;
21206;SDS011;10761;48.532;8.026;2024-03-07T05:36:12;181.68;;;39.45;;
21206;SDS011;10761;48.532;8.026;2024-03-07T05:38:44;518.35;;;44.85;;
21206;SDS011;10761;48.532;8.026;2024-03-07T05:41:10;372.75;;;40.05;;
21206;SDS011;10761;48.532;8.026;2024-03-07T05:43:37;549.15;;;46.78;;
21206;SDS011;10761;48.532;8.026;2024-03-07T05:46:03;327.65;;;39.72;;
21206;SDS011;10761;48.532;8.026;2024-03-07T05:48:30;638.25;;;47.03;;
21206;SDS011;10761;48.532;8.026;2024-03-07T05:50:56;617.72;;;46.30;;
21206;SDS011;10761;48.532;8.026;2024-03-07T05:53:22;399.88;;;40.38;;
21206;SDS011;10761;48.532;8.026;2024-03-07T05:55:48;331.00;;;42.28;;
21206;SDS011;10761;48.532;8.026;2024-03-07T05:58:13;86.47;;;38.08;;
21206;SDS011;10761;48.532;8.026;2024-03-07T06:00:39;89.05;;;39.25;;
21206;SDS011;10761;48.532;8.026;2024-03-07T06:03:05;87.55;;;37.38;;
21206;SDS011;10761;48.532;8.026;2024-03-07T06:05:30;93.75;;;37.75;;
21206;SDS011;10761;48.532;8.026;2024-03-07T06:07:56;107.03;;;38.50;;
21206;SDS011;10761;48.532;8.026;2024-03-07T06:10:22;78.75;;;40.22;;
21206;SDS011;10761;48.532;8.026;2024-03-07T06:12:51;93.78;;;44.95;;
21206;SDS011;10761;48.532;8.026;2024-03-07T06:15:17;88.00;;;43.22;;
21206;SDS011;10761;48.532;8.026;2024-03-07T06:17:43;101.03;;;47.72;;
21206;SDS011;10761;48.532;8.026;2024-03-07T06:20:11;106.25;;;50.00;;
21206;SDS011;10761;48.532;8.026;2024-03-07T06:22:47;105.30;;;49.35;;
21206;SDS011;10761;48.532;8.026;2024-03-07T06:25:15;117.88;;;56.28;;
21206;SDS011;10761;48.532;8.026;2024-03-07T06:27:45;131.73;;;61.00;;
21206;SDS011;10761;48.532;8.026;2024-03-07T06:30:17;128.93;;;60.03;;
21206;SDS011;10761;48.532;8.026;2024-03-07T06:32:43;134.85;;;60.03;;
21206;SDS011;10761;48.532;8.026;2024-03-07T06:35:09;137.40;;;62.15;;
21206;SDS011;10761;48.532;8.026;2024-03-07T06:37:37;138.55;;;62.75;;
21206;SDS011;10761;48.532;8.026;2024-03-07T06:40:04;134.20;;;60.65;;
21206;SDS011;10761;48.532;8.026;2024-03-07T06:42:34;130.88;;;61.67;;
21206;SDS011;10761;48.532;8.026;2024-03-07T06:45:01;126.85;;;62.55;;
21206;SDS011;10761;48.532;8.026;2024-03-07T06:47:28;131.55;;;60.90;;
21206;SDS011;10761;48.532;8.026;2024-03-07T06:49:53;119.88;;;60.15;;
21206;SDS011;10761;48.532;8.026;2024-03-07T06:52:21;129.07;;;60.25;;
21206;SDS011;10761;48.532;8.026;2024-03-07T06:54:46;124.75;;;61.42;;
21206;SDS011;10761;48.532;8.026;2024-03-07T06:57:13;120.97;;;58.22;;
21206;SDS011;10761;48.532;8.026;2024-03-07T06:59:42;121.53;;;58.33;;
21206;SDS011;10761;48.532;8.026;2024-03-07T07:02:07;117.60;;;59.50;;
21206;SDS011;10761;48.532;8.026;2024-03-07T07:04:33;117.63;;;60.90;;
21206;SDS011;10761;48.532;8.026;2024-03-07T07:07:06;105.78;;;56.15;;
21206;SDS011;10761;48.532;8.026;2024-03-07T07:09:35;95.97;;;53.08;;
21206;SDS011;10761;48.532;8.026;2024-03-07T07:12:01;92.13;;;51.67;;
21206;SDS011;10761;48.532;8.026;2024-03-07T07:14:30;88.95;;;51.03;;
21206;SDS011;10761;48.532;8.026;2024-03-07T07:16:55;95.68;;;51.85;;
21206;SDS011;10761;48.532;8.026;2024-03-07T07:19:21;89.00;;;49.08;;
21206;SDS011;10761;48.532;8.026;2024-03-07T07:21:47;93.70;;;51.08;;
21206;SDS011;10761;48.532;8.026;2024-03-07T07:24:18;89.20;;;50.33;;
21206;SDS011;10761;48.532;8.026;2024-03-07T07:26:46;84.75;;;48.67;;
21206;SDS011;10761;48.532;8.026;2024-03-07T07:29:12;90.72;;;48.83;;
21206;SDS011;10761;48.532;8.026;2024-03-07T07:31:38;85.38;;;49.75;;
21206;SDS011;10761;48.532;8.026;2024-03-07T07:34:03;88.25;;;47.33;;
21206;SDS011;10761;48.532;8.026;2024-03-07T07:36:29;83.95;;;47.15;;
21206;SDS011;10761;48.532;8.026;2024-03-07T07:38:55;80.25;;;45.33;;
21206;SDS011;10761;48.532;8.026;2024-03-07T07:41:20;81.50;;;47.67;;
21206;SDS011;10761;48.532;8.026;2024-03-07T07:43:46;87.00;;;47.90;;
21206;SDS011;10761;48.532;8.026;2024-03-07T07:46:13;82.97;;;47.38;;
21206;SDS011;10761;48.532;8.026;2024-03-07T07:48:41;97.97;;;45.90;;
21206;SDS011;10761;48.532;8.026;2024-03-07T07:51:06;94.55;;;46.78;;
21206;SDS011;10761;48.532;8.026;2024-03-07T07:53:32;82.22;;;45.95;;
21206;SDS011;10761;48.532;8.026;2024-03-07T07:55:58;131.98;;;45.78;;
21206;SDS011;10761;48.532;8.026;2024-03-07T07:58:24;83.88;;;47.17;;
21206;SDS011;10761;48.532;8.026;2024-03-07T08:00:49;82.88;;;45.90;;
21206;SDS011;10761;48.532;8.026;2024-03-07T08:03:15;83.93;;;45.45;;
21206;SDS011;10761;48.532;8.026;2024-03-07T08:05:43;82.82;;;45.75;;
21206;SDS011;10761;48.532;8.026;2024-03-07T08:08:10;97.68;;;46.72;;
21206;SDS011;10761;48.532;8.026;2024-03-07T08:10:38;85.20;;;45.13;;
21206;SDS011;10761;48.532;8.026;2024-03-07T08:13:06;132.90;;;44.53;;
21206;SDS011;10761;48.532;8.026;2024-03-07T08:15:31;143.45;;;45.75;;
21206;SDS011;10761;48.532;8.026;2024-03-07T08:17:57;122.72;;;46.65;;
21206;SDS011;10761;48.532;8.026;2024-03-07T08:20:24;100.13;;;45.83;;
21206;SDS011;10761;48.532;8.026;2024-03-07T08:22:51;92.22;;;46.90;;
21206;SDS011;10761;48.532;8.026;2024-03-07T08:25:22;100.75;;;46.28;;
21206;SDS011;10761;48.532;8.026;2024-03-07T08:27:49;100.18;;;45.83;;
21206;SDS011;10761;48.532;8.026;2024-03-07T08:30:15;84.35;;;45.17;;
21206;SDS011;10761;48.532;8.026;2024-03-07T08:32:43;76.75;;;43.03;;
21206;SDS011;10761;48.532;8.026;2024-03-07T08:35:10;76.47;;;42.47;;
21206;SDS011;10761;48.532;8.026;2024-03-07T08:37:36;70.55;;;41.83;;
21206;SDS011;10761;48.532;8.026;2024-03-07T08:40:07;70.20;;;41.00;;
21206;SDS011;10761;48.532;8.026;2024-03-07T08:42:35;69.95;;;40.17;;
21206;SDS011;10761;48.532;8.026;2024-03-07T08:45:02;69.85;;;39.92;;
21206;SDS011;10761;48.532;8.026;2024-03-07T08:47:31;69.05;;;39.97;;
21206;SDS011;10761;48.532;8.026;2024-03-07T08:49:58;71.35;;;39.63;;
21206;SDS011;10761;48.532;8.026;2024-03-07T08:52:24;68.65;;;41.17;;
21206;SDS011;10761;48.532;8.026;2024-03-07T08:54:50;73.55;;;40.97;;
21206;SDS011;10761;48.532;8.026;2024-03-07T08:57:16;74.20;;;41.10;;
21206;SDS011;10761;48.532;8.026;2024-03-07T08:59:44;76.10;;;42.35;;
21206;SDS011;10761;48.532;8.026;2024-03-07T09:02:11;74.72;;;41.92;;
21206;SDS011;10761;48.532;8.026;2024-03-07T09:04:37;71.40;;;41.13;;
21206;SDS011;10761;48.532;8.026;2024-03-07T09:07:03;69.30;;;40.17;;
21206;SDS011;10761;48.532;8.026;2024-03-07T09:09:32;68.93;;;40.60;;
21206;SDS011;10761;48.532;8.026;2024-03-07T09:11:58;63.33;;;38.00;;
21206;SDS011;10761;48.532;8.026;2024-03-07T09:14:26;62.17;;;38.72;;
21206;SDS011;10761;48.532;8.026;2024-03-07T09:16:52;59.58;;;37.53;;
21206;SDS011;10761;48.532;8.026;2024-03-07T09:19:18;60.78;;;37.58;;
21206;SDS011;10761;48.532;8.026;2024-03-07T09:21:45;60.25;;;38.08;;
21206;SDS011;10761;48.532;8.026;2024-03-07T09:24:11;55.92;;;36.25;;
21206;SDS011;10761;48.532;8.026;2024-03-07T09:26:37;55.78;;;36.75;;
21206;SDS011;10761;48.532;8.026;2024-03-07T09:29:04;57.40;;;36.30;;
21206;SDS011;10761;48.532;8.026;2024-03-07T09:31:34;54.53;;;36.10;;
21206;SDS011;10761;48.532;8.026;2024-03-07T09:33:59;56.78;;;35.75;;
21206;SDS011;10761;48.532;8.026;2024-03-07T09:36:25;55.67;;;36.38;;
21206;SDS011;10761;48.532;8.026;2024-03-07T09:38:51;56.75;;;35.55;;
21206;SDS011;10761;48.532;8.026;2024-03-07T09:41:16;55.05;;;35.97;;
21206;SDS011;10761;48.532;8.026;2024-03-07T09:43:46;52.15;;;35.33;;
21206;SDS011;10761;48.532;8.026;2024-03-07T09:46:16;53.08;;;35.25;;
21206;SDS011;10761;48.532;8.026;2024-03-07T09:48:43;51.80;;;34.15;;
21206;SDS011;10761;48.532;8.026;2024-03-07T09:51:09;51.33;;;34.22;;
21206;SDS011;10761;48.532;8.026;2024-03-07T09:53:38;50.70;;;34.90;;
21206;SDS011;10761;48.532;8.026;2024-03-07T09:56:06;50.38;;;31.75;;
21206;SDS011;10761;48.532;8.026;2024-03-07T09:58:32;50.35;;;32.00;;
21206;SDS011;10761;48.532;8.026;2024-03-07T10:01:00;46.13;;;31.35;;
21206;SDS011;10761;48.532;8.026;2024-03-07T10:03:28;42.67;;;30.02;;
21206;SDS011;10761;48.532;8.026;2024-03-07T10:05:54;42.60;;;30.27;;
21206;SDS011;10761;48.532;8.026;2024-03-07T10:08:21;43.83;;;30.58;;
21206;SDS011;10761;48.532;8.026;2024-03-07T10:10:49;39.30;;;30.08;;
21206;SDS011;10761;48.532;8.026;2024-03-07T10:13:16;42.70;;;29.70;;
21206;SDS011;10761;48.532;8.026;2024-03-07T10:15:42;39.60;;;30.80;;
21206;SDS011;10761;48.532;8.026;2024-03-07T10:18:09;41.58;;;30.13;;
21206;SDS011;10761;48.532;8.026;2024-03-07T10:20:35;40.42;;;28.63;;
21206;SDS011;10761;48.532;8.026;2024-03-07T10:23:02;38.47;;;28.95;;
21206;SDS011;10761;48.532;8.026;2024-03-07T10:25:28;41.65;;;31.05;;
21206;SDS011;10761;48.532;8.026;2024-03-07T10:27:54;42.22;;;30.58;;
21206;SDS011;10761;48.532;8.026;2024-03-07T10:30:20;43.80;;;30.65;;
21206;SDS011;10761;48.532;8.026;2024-03-07T10:32:46;40.78;;;30.55;;
21206;SDS011;10761;48.532;8.026;2024-03-07T10:35:13;43.13;;;30.73;;
21206;SDS011;10761;48.532;8.026;2024-03-07T10:37:39;42.22;;;31.02;;
21206;SDS011;10761;48.532;8.026;2024-03-07T10:40:05;42.08;;;31.25;;
21206;SDS011;10761;48.532;8.026;2024-03-07T10:42:40;41.58;;;30.58;;
21206;SDS011;10761;48.532;8.026;2024-03-07T10:45:18;42.03;;;30.55;;
21206;SDS011;10761;48.532;8.026;2024-03-07T10:47:46;39.33;;;29.15;;
21206;SDS011;10761;48.532;8.026;2024-03-07T10:50:30;40.38;;;29.95;;
21206;SDS011;10761;48.532;8.026;2024-03-07T10:59:06;39.03;;;28.35;;
21206;SDS011;10761;48.532;8.026;2024-03-07T11:01:47;39.72;;;29.98;;
21206;SDS011;10761;48.532;8.026;2024-03-07T11:04:41;41.15;;;28.33;;
21206;SDS011;10761;48.532;8.026;2024-03-07T11:07:08;40.35;;;29.90;;
21206;SDS011;10761;48.532;8.026;2024-03-07T11:09:36;42.22;;;30.58;;
21206;SDS011;10761;48.532;8.026;2024-03-07T11:12:02;39.00;;;28.75;;
21206;SDS011;10761;48.532;8.026;2024-03-07T11:14:29;42.55;;;30.67;;
21206;SDS011;10761;48.532;8.026;2024-03-07T11:16:56;42.45;;;28.98;;
21206;SDS011;10761;48.532;8.026;2024-03-07T11:22:01;45.67;;;30.63;;
21206;SDS011;10761;48.532;8.026;2024-03-07T11:24:39;38.05;;;29.55;;
21206;SDS011;10761;48.532;8.026;2024-03-07T11:27:04;38.55;;;29.33;;
21206;SDS011;10761;48.532;8.026;2024-03-07T11:29:45;41.65;;;29.92;;
21206;SDS011;10761;48.532;8.026;2024-03-07T11:32:13;41.88;;;29.67;;
21206;SDS011;10761;48.532;8.026;2024-03-07T11:34:40;37.47;;;28.10;;
21206;SDS011;10761;48.532;8.026;2024-03-07T11:37:07;38.78;;;29.52;;
21206;SDS011;10761;48.532;8.026;2024-03-07T11:39:48;38.65;;;29.15;;
21206;SDS011;10761;48.532;8.026;2024-03-07T11:42:23;40.08;;;29.17;;
21206;SDS011;10761;48.532;8.026;2024-03-07T11:44:53;37.22;;;27.70;;
21206;SDS011;10761;48.532;8.026;2024-03-07T11:47:26;38.63;;;28.98;;
21206;SDS011;10761;48.532;8.026;2024-03-07T11:50:00;43.90;;;30.80;;
21206;SDS011;10761;48.532;8.026;2024-03-07T11:52:27;38.55;;;30.48;;
21206;SDS011;10761;48.532;8.026;2024-03-07T11:54:53;42.30;;;29.27;;
21206;SDS011;10761;48.532;8.026;2024-03-07T11:57:18;40.42;;;29.40;;
21206;SDS011;10761;48.532;8.026;2024-03-07T11:59:45;37.75;;;28.90;;
21206;SDS011;10761;48.532;8.026;2024-03-07T12:02:12;37.00;;;28.08;;
21206;SDS011;10761;48.532;8.026;2024-03-07T12:04:43;38.10;;;27.92;;
21206;SDS011;10761;48.532;8.026;2024-03-07T12:07:09;33.90;;;26.83;;
21206;SDS011;10761;48.532;8.026;2024-03-07T12:09:39;35.95;;;25.65;;
21206;SDS011;10761;48.532;8.026;2024-03-07T12:12:05;37.88;;;28.65;;
21206;SDS011;10761;48.532;8.026;2024-03-07T12:14:31;40.22;;;29.30;;
21206;SDS011;10761;48.532;8.026;2024-03-07T12:16:59;38.38;;;28.00;;
21206;SDS011;10761;48.532;8.026;2024-03-07T12:19:26;34.80;;;26.05;;
21206;SDS011;10761;48.532;8.026;2024-03-07T12:21:56;35.97;;;28.05;;
21206;SDS011;10761;48.532;8.026;2024-03-07T12:24:22;35.47;;;26.15;;
21206;SDS011;10761;48.532;8.026;2024-03-07T12:26:48;39.42;;;27.63;;
21206;SDS011;10761;48.532;8.026;2024-03-07T12:29:13;35.90;;;24.38;;
21206;SDS011;10761;48.532;8.026;2024-03-07T12:31:41;31.33;;;24.67;;
21206;SDS011;10761;48.532;8.026;2024-03-07T12:34:07;32.17;;;23.83;;
21206;SDS011;10761;48.532;8.026;2024-03-07T12:36:36;31.58;;;24.35;;
21206;SDS011;10761;48.532;8.026;2024-03-07T12:41:57;32.72;;;24.23;;
21206;SDS011;10761;48.532;8.026;2024-03-07T12:44:23;32.50;;;24.60;;
21206;SDS011;10761;48.532;8.026;2024-03-07T12:46:50;32.25;;;23.77;;
21206;SDS011;10761;48.532;8.026;2024-03-07T12:49:20;33.65;;;24.98;;
21206;SDS011;10761;48.532;8.026;2024-03-07T12:51:55;33.08;;;24.00;;
21206;SDS011;10761;48.532;8.026;2024-03-07T12:54:21;30.23;;;23.50;;
21206;SDS011;10761;48.532;8.026;2024-03-07T12:56:48;31.60;;;23.23;;
21206;SDS011;10761;48.532;8.026;2024-03-07T12:59:16;31.50;;;23.42;;
21206;SDS011;10761;48.532;8.026;2024-03-07T13:01:42;30.23;;;23.83;;
21206;SDS011;10761;48.532;8.026;2024-03-07T13:04:10;32.35;;;24.63;;
21206;SDS011;10761;48.532;8.026;2024-03-07T13:06:36;29.50;;;23.38;;
21206;SDS011;10761;48.532;8.026;2024-03-07T13:09:02;28.83;;;23.33;;
21206;SDS011;10761;48.532;8.026;2024-03-07T13:11:35;31.98;;;23.70;;
21206;SDS011;10761;48.532;8.026;2024-03-07T13:14:07;32.47;;;23.05;;
21206;SDS011;10761;48.532;8.026;2024-03-07T13:16:34;31.20;;;22.98;;
21206;SDS011;10761;48.532;8.026;2024-03-07T13:19:00;30.65;;;23.73;;
21206;SDS011;10761;48.532;8.026;2024-03-07T13:21:30;32.65;;;22.90;;
21206;SDS011;10761;48.532;8.026;2024-03-07T13:23:56;28.92;;;22.33;;
21206;SDS011;10761;48.532;8.026;2024-03-07T13:26:23;29.88;;;22.73;;
21206;SDS011;10761;48.532;8.026;2024-03-07T13:28:51;28.88;;;21.98;;
21206;SDS011;10761;48.532;8.026;2024-03-07T13:31:18;33.60;;;22.52;;
21206;SDS011;10761;48.532;8.026;2024-03-07T13:33:44;33.13;;;24.35;;
21206;SDS011;10761;48.532;8.026;2024-03-07T13:36:10;24.80;;;18.45;;
21206;SDS011;10761;48.532;8.026;2024-03-07T13:38:36;24.13;;;17.58;;
21206;SDS011;10761;48.532;8.026;2024-03-07T13:41:03;27.20;;;17.65;;
21206;SDS011;10761;48.532;8.026;2024-03-07T13:43:29;27.23;;;18.75;;
21206;SDS011;10761;48.532;8.026;2024-03-07T13:45:55;25.20;;;17.63;;
21206;SDS011;10761;48.532;8.026;2024-03-07T13:48:21;26.35;;;18.35;;
21206;SDS011;10761;48.532;8.026;2024-03-07T13:50:47;25.65;;;18.67;;
21206;SDS011;10761;48.532;8.026;2024-03-07T13:53:18;29.77;;;19.23;;
21206;SDS011;10761;48.532;8.026;2024-03-07T13:58:50;27.60;;;18.60;;
21206;SDS011;10761;48.532;8.026;2024-03-07T14:04:03;29.50;;;18.58;;
21206;SDS011;10761;48.532;8.026;2024-03-07T14:07:06;26.48;;;17.73;;
21206;SDS011;10761;48.532;8.026;2024-03-07T14:27:41;30.60;;;19.38;;
21206;SDS011;10761;48.532;8.026;2024-03-07T14:30:19;30.67;;;22.15;;
21206;SDS011;10761;48.532;8.026;2024-03-07T14:32:53;31.85;;;23.13;;
21206;SDS011;10761;48.532;8.026;2024-03-07T14:35:31;33.60;;;23.05;;
21206;SDS011;10761;48.532;8.026;2024-03-07T14:40:50;28.88;;;19.17;;
21206;SDS011;10761;48.532;8.026;2024-03-07T14:43:17;26.30;;;18.80;;
21206;SDS011;10761;48.532;8.026;2024-03-07T14:45:44;27.90;;;18.50;;
21206;SDS011;10761;48.532;8.026;2024-03-07T14:48:11;27.38;;;19.52;;
21206;SDS011;10761;48.532;8.026;2024-03-07T14:50:40;30.75;;;19.48;;
21206;SDS011;10761;48.532;8.026;2024-03-07T14:53:07;27.67;;;18.02;;
21206;SDS011;10761;48.532;8.026;2024-03-07T14:55:33;28.58;;;19.25;;
21206;SDS011;10761;48.532;8.026;2024-03-07T14:58:00;26.65;;;17.88;;
21206;SDS011;10761;48.532;8.026;2024-03-07T15:00:26;28.02;;;18.75;;